createdAt,value
2018-07-20T00:00:23.717Z,6.67
2018-07-20T00:02:52.825Z,6.50
2018-07-20T00:05:21.921Z,6.63
2018-07-20T00:07:51.017Z,6.60
2018-07-20T00:10:20.102Z,6.90
2018-07-20T00:12:49.193Z,6.63
2018-07-20T00:15:18.289Z,7.07
2018-07-20T00:17:47.381Z,6.57
2018-07-20T00:20:16.485Z,6.87
2018-07-20T00:22:45.577Z,6.83
2018-07-20T00:25:14.666Z,6.20
2018-07-20T00:27:43.807Z,6.27
2018-07-20T00:30:12.893Z,6.60
2018-07-20T00:32:42.139Z,6.57
2018-07-20T00:35:11.254Z,6.43
2018-07-20T00:37:40.353Z,6.23
2018-07-20T00:40:09.469Z,6.63
2018-07-20T00:42:38.553Z,6.57
2018-07-20T00:45:07.932Z,6.70
2018-07-20T00:47:37.021Z,7.30
2018-07-20T00:50:06.878Z,6.60
2018-07-20T00:52:35.965Z,6.50
2018-07-20T00:55:05.137Z,6.93
2018-07-20T00:57:34.236Z,7.33
2018-07-20T01:00:03.377Z,6.67
2018-07-20T01:02:32.469Z,6.40
2018-07-20T01:05:01.553Z,6.40
2018-07-20T01:07:30.651Z,6.77
2018-07-20T01:09:59.738Z,6.53
2018-07-20T01:12:28.825Z,7.63
2018-07-20T01:14:57.929Z,6.40
2018-07-20T01:17:27.065Z,7.27
2018-07-20T01:19:56.181Z,6.57
2018-07-20T01:22:25.285Z,6.53
2018-07-20T01:24:54.385Z,8.23
2018-07-20T01:27:23.477Z,7.50
2018-07-20T01:29:52.573Z,6.30
2018-07-20T01:32:21.674Z,8.30
2018-07-20T01:34:50.790Z,7.00
2018-07-20T01:37:19.933Z,7.50
2018-07-20T01:39:49.013Z,6.60
2018-07-20T01:42:18.394Z,6.70
2018-07-20T01:44:47.502Z,7.73
2018-07-20T01:47:16.637Z,7.50
2018-07-20T01:49:45.713Z,7.30
2018-07-20T01:52:14.812Z,6.97
2018-07-20T01:54:43.921Z,7.80
2018-07-20T01:57:13.005Z,8.20
2018-07-20T01:59:42.125Z,7.70
2018-07-20T02:02:11.221Z,8.93
2018-07-20T02:04:40.313Z,8.53
2018-07-20T02:07:09.417Z,9.77
2018-07-20T02:09:39.355Z,8.90
2018-07-20T02:12:08.477Z,8.87
2018-07-20T02:14:37.557Z,8.80
2018-07-20T02:17:06.641Z,7.97
2018-07-20T02:19:35.739Z,8.87
2018-07-20T02:22:04.853Z,7.97
2018-07-20T02:24:34.196Z,8.03
2018-07-20T02:27:03.493Z,8.33
2018-07-20T02:29:32.600Z,7.90
2018-07-20T02:32:01.674Z,7.77
2018-07-20T02:34:30.765Z,7.43
2018-07-20T02:37:00.930Z,7.70
2018-07-20T02:39:30.030Z,8.30
2018-07-20T02:41:59.122Z,7.80
2018-07-20T02:44:28.210Z,8.43
2018-07-20T02:46:57.290Z,8.03
2018-07-20T02:49:26.400Z,7.77
2018-07-20T02:51:55.493Z,7.97
2018-07-20T02:54:24.574Z,7.47
2018-07-20T02:56:53.685Z,7.80
2018-07-20T02:59:22.805Z,8.00
2018-07-20T03:01:51.913Z,7.30
2018-07-20T03:04:21.009Z,7.70
2018-07-20T03:06:50.097Z,7.07
2018-07-20T03:09:19.450Z,8.63
2018-07-20T03:11:48.546Z,8.20
2018-07-20T03:14:17.713Z,7.87
2018-07-20T03:16:46.794Z,7.83
2018-07-20T03:19:15.890Z,7.50
2018-07-20T03:21:44.990Z,8.90
2018-07-20T03:24:14.081Z,8.67
2018-07-20T03:26:43.217Z,8.97
2018-07-20T03:29:12.301Z,7.60
2018-07-20T03:31:41.521Z,8.50
2018-07-20T03:34:10.613Z,8.40
2018-07-20T03:36:39.717Z,7.83
2018-07-20T03:39:09.735Z,8.00
2018-07-20T03:41:39.200Z,8.37
2018-07-20T03:44:08.729Z,7.77
2018-07-20T03:46:37.905Z,8.00
2018-07-20T03:49:07.069Z,7.53
2018-07-20T03:51:36.105Z,8.60
2018-07-20T03:54:05.229Z,8.37
2018-07-20T03:56:34.320Z,9.03
2018-07-20T03:59:03.427Z,8.57
2018-07-20T04:01:32.521Z,9.37
2018-07-20T04:04:01.617Z,8.70
2018-07-20T04:06:30.705Z,8.70
2018-07-20T04:08:59.819Z,8.50
2018-07-20T04:11:28.914Z,9.57
2018-07-20T04:13:58.007Z,9.00
2018-07-20T04:16:27.119Z,8.80
2018-07-20T04:18:56.237Z,9.10
2018-07-20T04:21:25.669Z,9.53
2018-07-20T04:23:54.765Z,8.83
2018-07-20T04:26:23.868Z,10.53
2018-07-20T04:28:52.964Z,10.67
2018-07-20T04:31:22.054Z,10.50
2018-07-20T04:33:51.157Z,10.43
2018-07-20T04:36:20.314Z,11.03
2018-07-20T04:38:49.477Z,10.60
2018-07-20T04:41:18.729Z,10.93
2018-07-20T04:43:47.870Z,9.80
2018-07-20T04:46:17.005Z,10.50
2018-07-20T04:48:46.093Z,9.73
2018-07-20T04:51:15.197Z,9.97
2018-07-20T04:53:44.281Z,9.53
2018-07-20T04:56:13.428Z,9.33
2018-07-20T04:58:42.588Z,10.20
2018-07-20T05:01:11.625Z,10.90
2018-07-20T05:03:40.751Z,9.90
2018-07-20T05:06:09.819Z,10.87
2018-07-20T05:08:38.917Z,10.00
2018-07-20T05:11:08.031Z,9.67
2018-07-20T05:13:37.125Z,9.60
2018-07-20T05:16:06.261Z,9.33
2018-07-20T05:18:35.350Z,8.97
2018-07-20T05:21:04.433Z,9.90
2018-07-20T05:23:33.558Z,10.60
2018-07-20T05:26:02.661Z,11.10
2018-07-20T05:28:31.825Z,9.33
2018-07-20T05:31:00.989Z,10.57
2018-07-20T05:33:30.080Z,10.67
2018-07-20T05:35:59.192Z,10.40
2018-07-20T05:38:28.333Z,10.00
2018-07-20T05:40:57.421Z,10.73
2018-07-20T05:43:26.539Z,10.20
2018-07-20T05:45:55.613Z,10.40
2018-07-20T05:48:24.749Z,10.50
2018-07-20T05:50:53.854Z,9.53
2018-07-20T05:53:22.982Z,10.57
2018-07-20T05:55:52.059Z,11.27
2018-07-20T05:58:21.201Z,11.77
2018-07-20T06:00:50.347Z,11.03
2018-07-20T06:03:19.490Z,10.60
2018-07-20T06:05:48.597Z,11.03
2018-07-20T06:08:17.698Z,10.43
2018-07-20T06:10:46.819Z,10.80
2018-07-20T06:13:15.905Z,10.10
2018-07-20T06:15:45.018Z,11.50
2018-07-20T06:18:14.113Z,11.27
2018-07-20T06:20:43.241Z,11.43
2018-07-20T06:23:12.374Z,10.03
2018-07-20T06:25:41.509Z,10.13
2018-07-20T06:28:10.618Z,10.83
2018-07-20T06:30:39.734Z,11.43
2018-07-20T06:33:08.844Z,10.97
2018-07-20T06:35:37.973Z,10.70
2018-07-20T06:38:07.516Z,11.30
2018-07-20T06:40:36.764Z,11.20
2018-07-20T06:43:05.827Z,10.63
2018-07-20T06:45:34.953Z,11.13
2018-07-20T06:48:04.039Z,10.47
2018-07-20T06:50:33.137Z,11.73
2018-07-20T06:53:02.253Z,13.37
2018-07-20T06:55:31.389Z,11.33
2018-07-20T06:58:00.495Z,12.03
2018-07-20T07:00:29.600Z,11.70
2018-07-20T07:02:58.698Z,11.53
2018-07-20T07:05:27.824Z,11.10
2018-07-20T07:07:56.921Z,9.83
2018-07-20T07:10:26.026Z,10.40
2018-07-20T07:12:55.581Z,9.77
2018-07-20T07:15:24.703Z,11.23
2018-07-20T07:17:53.793Z,9.40
2018-07-20T07:20:23.018Z,11.83
2018-07-20T07:22:52.182Z,11.83
2018-07-20T07:25:21.310Z,11.20
2018-07-20T07:27:50.407Z,10.93
2018-07-20T07:30:19.525Z,10.50
2018-07-20T07:32:48.633Z,12.37
2018-07-20T07:35:17.745Z,11.80
2018-07-20T07:37:46.861Z,10.87
2018-07-20T07:40:16.034Z,10.20
2018-07-20T07:42:45.124Z,9.50
2018-07-20T07:45:14.271Z,10.30
2018-07-20T07:47:43.349Z,9.67
2018-07-20T07:50:12.465Z,11.23
2018-07-20T07:52:41.613Z,10.07
2018-07-20T07:55:10.717Z,9.47
2018-07-20T07:57:39.799Z,10.57
2018-07-20T08:00:08.909Z,9.63
2018-07-20T08:02:38.014Z,10.17
2018-07-20T08:05:07.353Z,10.00
2018-07-20T08:07:36.513Z,9.30
2018-07-20T08:10:05.833Z,9.13
2018-07-20T08:12:34.801Z,9.63
2018-07-20T08:15:03.990Z,10.33
2018-07-20T08:17:33.149Z,10.03
2018-07-20T08:20:02.276Z,9.77
2018-07-20T08:22:31.409Z,10.40
2018-07-20T08:25:00.517Z,9.50
2018-07-20T08:27:29.657Z,8.70
2018-07-20T08:29:58.765Z,8.97
2018-07-20T08:32:27.901Z,8.70
2018-07-20T08:34:57.016Z,8.20
2018-07-20T08:37:26.150Z,7.50
2018-07-20T08:39:55.513Z,7.50
2018-07-20T08:42:24.837Z,7.23
2018-07-20T08:44:53.984Z,6.50
2018-07-20T08:47:23.097Z,6.03
2018-07-20T08:49:52.216Z,6.37
2018-07-20T08:52:21.326Z,5.77
2018-07-20T08:54:50.477Z,5.77
2018-07-20T08:57:19.601Z,5.40
2018-07-20T08:59:48.826Z,4.87
2018-07-20T09:02:17.919Z,5.60
2018-07-20T09:04:47.041Z,6.43
2018-07-20T09:07:16.192Z,6.00
2018-07-20T09:09:45.284Z,6.43
2018-07-20T09:12:14.486Z,6.50
2018-07-20T09:14:43.685Z,5.70
2018-07-20T09:17:12.829Z,4.90
2018-07-20T09:19:41.945Z,5.53
2018-07-20T09:22:11.029Z,5.23
2018-07-20T09:24:40.172Z,5.10
2018-07-20T09:27:09.317Z,5.33
2018-07-20T09:29:38.432Z,5.30
2018-07-20T09:32:07.537Z,5.17
2018-07-20T09:34:36.624Z,5.60
2018-07-20T09:37:05.973Z,5.00
2018-07-20T09:39:35.057Z,5.13
2018-07-20T09:42:04.185Z,5.30
2018-07-20T09:44:33.281Z,4.97
2018-07-20T09:47:02.369Z,4.80
2018-07-20T09:49:31.481Z,4.57
2018-07-20T09:52:00.577Z,4.60
2018-07-20T09:54:29.676Z,4.87
2018-07-20T09:56:58.786Z,5.27
2018-07-20T09:59:27.872Z,5.50
2018-07-20T10:01:57.058Z,5.00
2018-07-20T10:04:26.177Z,5.10
2018-07-20T10:06:55.318Z,5.10
2018-07-20T10:09:24.407Z,5.33
2018-07-20T10:11:53.515Z,5.00
2018-07-20T10:14:22.606Z,4.60
2018-07-20T10:16:51.713Z,4.60
2018-07-20T10:19:20.855Z,4.83
2018-07-20T10:21:49.949Z,5.20
2018-07-20T10:24:19.097Z,5.10
2018-07-20T10:26:48.200Z,4.40
2018-07-20T10:29:17.286Z,4.80
2018-07-20T10:31:46.386Z,4.40
2018-07-20T10:34:15.485Z,4.90
2018-07-20T10:36:44.678Z,4.90
2018-07-20T10:39:13.721Z,5.33
2018-07-20T10:41:42.821Z,4.90
2018-07-20T10:44:11.936Z,5.10
2018-07-20T10:46:41.026Z,5.10
2018-07-20T10:49:10.186Z,4.63
2018-07-20T10:51:39.304Z,4.80
2018-07-20T10:54:08.434Z,4.77
2018-07-20T10:56:37.549Z,4.70
2018-07-20T10:59:06.657Z,4.30
2018-07-20T11:01:35.883Z,4.80
2018-07-20T11:04:04.949Z,4.23
2018-07-20T11:06:34.365Z,5.00
2018-07-20T11:09:03.974Z,4.63
2018-07-20T11:11:33.065Z,4.80
2018-07-20T11:14:02.215Z,4.80
2018-07-20T11:16:31.297Z,5.03
2018-07-20T11:19:00.441Z,4.87
2018-07-20T11:21:29.533Z,4.23
2018-07-20T11:23:58.632Z,4.80
2018-07-20T11:26:27.705Z,4.17
2018-07-20T11:28:56.793Z,4.57
2018-07-20T11:31:25.901Z,4.37
2018-07-20T11:33:54.986Z,4.87
2018-07-20T11:36:24.141Z,4.50
2018-07-20T11:38:53.309Z,4.77
2018-07-20T11:41:22.400Z,4.93
2018-07-20T11:43:51.508Z,4.47
2018-07-20T11:46:20.605Z,4.43
2018-07-20T11:48:49.833Z,4.30
2018-07-20T11:51:18.925Z,4.80
2018-07-20T11:53:48.129Z,4.73
2018-07-20T11:56:17.216Z,4.67
2018-07-20T11:58:46.357Z,4.90
2018-07-20T12:01:15.475Z,4.70
2018-07-20T12:03:44.609Z,4.63
2018-07-20T12:06:13.721Z,4.80
2018-07-20T12:08:42.865Z,5.00
2018-07-20T12:11:12.006Z,4.93
2018-07-20T12:13:41.221Z,4.90
2018-07-20T12:16:10.313Z,4.80
2018-07-20T12:18:39.442Z,4.93
2018-07-20T12:21:08.542Z,4.83
2018-07-20T12:23:37.632Z,4.80
2018-07-20T12:26:06.769Z,4.97
2018-07-20T12:28:36.913Z,5.50
2018-07-20T12:31:06.015Z,5.57
2018-07-20T12:33:35.109Z,5.60
2018-07-20T12:36:04.257Z,4.87
2018-07-20T12:38:33.355Z,5.20
2018-07-20T12:41:02.432Z,5.20
2018-07-20T12:43:31.530Z,5.20
2018-07-20T12:46:00.681Z,5.47
2018-07-20T12:48:29.765Z,5.50
2018-07-20T12:50:58.867Z,5.43
2018-07-20T12:53:27.988Z,5.40
2018-07-20T12:55:57.113Z,4.80
2018-07-20T12:58:26.312Z,5.00
2018-07-20T13:00:55.376Z,5.10
2018-07-20T13:03:24.461Z,5.13
2018-07-20T13:05:53.854Z,4.70
2018-07-20T13:08:23.153Z,5.10
2018-07-20T13:10:52.458Z,5.00
2018-07-20T13:13:21.658Z,5.27
2018-07-20T13:15:50.757Z,5.33
2018-07-20T13:18:19.942Z,5.23
2018-07-20T13:20:49.085Z,5.17
2018-07-20T13:23:18.192Z,5.30
2018-07-20T13:25:47.281Z,5.40
2018-07-20T13:28:16.362Z,5.30
2018-07-20T13:30:45.454Z,5.40
2018-07-20T13:33:15.062Z,5.10
2018-07-20T13:35:45.061Z,5.20
2018-07-20T13:38:15.781Z,5.20
2018-07-20T13:40:44.910Z,5.90
2018-07-20T13:43:14.109Z,4.93
2018-07-20T13:45:43.246Z,4.73
2018-07-20T13:48:12.325Z,5.37
2018-07-20T13:50:41.429Z,5.13
2018-07-20T13:53:10.548Z,4.87
2018-07-20T13:55:39.653Z,5.27
2018-07-20T13:58:08.729Z,5.13
2018-07-20T14:00:37.837Z,5.50
2018-07-20T14:03:06.969Z,5.03
2018-07-20T14:05:36.137Z,5.57
2018-07-20T14:08:05.258Z,5.10
2018-07-20T14:10:34.539Z,5.00
2018-07-20T14:13:03.659Z,5.37
2018-07-20T14:15:32.781Z,5.20
2018-07-20T14:18:01.872Z,5.17
2018-07-20T14:20:31.025Z,4.80
2018-07-20T14:23:00.109Z,5.13
2018-07-20T14:25:29.197Z,5.33
2018-07-20T14:27:58.305Z,5.37
2018-07-20T14:30:27.413Z,4.93
2018-07-20T14:32:56.517Z,5.30
2018-07-20T14:35:25.726Z,5.30
2018-07-20T14:37:54.845Z,5.03
2018-07-20T14:40:23.961Z,5.33
2018-07-20T14:42:53.061Z,5.33
2018-07-20T14:45:22.241Z,5.10
2018-07-20T14:47:51.340Z,5.20
2018-07-20T14:50:20.433Z,5.10
2018-07-20T14:52:49.621Z,5.43
2018-07-20T14:55:18.730Z,5.07
2018-07-20T14:57:50.681Z,5.17
2018-07-20T15:00:19.871Z,4.90
2018-07-20T15:02:48.958Z,5.20
2018-07-20T15:05:18.065Z,5.20
2018-07-20T15:07:47.165Z,5.03
2018-07-20T15:10:16.261Z,5.13
2018-07-20T15:12:45.405Z,5.07
2018-07-20T15:15:14.537Z,5.27
2018-07-20T15:17:43.677Z,5.77
2018-07-20T15:20:12.809Z,5.17
2018-07-20T15:22:41.930Z,5.73
2018-07-20T15:25:11.037Z,5.80
2018-07-20T15:27:40.162Z,5.27
2018-07-20T15:30:09.266Z,5.17
2018-07-20T15:32:38.373Z,5.30
2018-07-20T15:35:07.469Z,5.70
2018-07-20T15:37:36.709Z,5.27
2018-07-20T15:40:05.841Z,5.63
2018-07-20T15:42:34.962Z,5.60
2018-07-20T15:45:04.226Z,6.20
2018-07-20T15:47:33.421Z,5.50
2018-07-20T15:50:02.406Z,5.67
2018-07-20T15:55:00.577Z,5.77
2018-07-20T15:57:30.007Z,5.77
2018-07-20T15:59:59.175Z,6.03
2018-07-20T16:02:28.221Z,5.87
2018-07-20T16:04:57.315Z,6.13
2018-07-20T16:07:26.433Z,6.00
2018-07-20T16:09:55.533Z,5.90
2018-07-20T16:12:24.657Z,6.27
2018-07-20T16:14:53.756Z,6.43
2018-07-20T16:17:22.895Z,6.27
2018-07-20T16:19:52.073Z,6.50
2018-07-20T16:22:21.158Z,6.03
2018-07-20T16:24:50.280Z,6.20
2018-07-20T16:27:19.361Z,5.67
2018-07-20T16:29:48.444Z,6.57
2018-07-20T16:32:17.612Z,6.60
2018-07-20T16:34:46.758Z,6.80
2018-07-20T16:37:15.878Z,6.53
2018-07-20T16:39:45.121Z,6.60
2018-07-20T16:42:14.253Z,6.80
2018-07-20T16:44:43.341Z,6.60
2018-07-20T16:47:12.545Z,6.17
2018-07-20T16:49:41.609Z,6.40
2018-07-20T16:52:10.729Z,7.10
2018-07-20T16:54:39.827Z,7.67
2018-07-20T16:57:09.217Z,6.77
2018-07-20T16:59:38.356Z,7.43
2018-07-20T17:02:07.505Z,6.57
2018-07-20T17:04:36.600Z,6.67
2018-07-20T17:07:05.882Z,7.70
2018-07-20T17:09:34.963Z,7.30
2018-07-20T17:12:04.066Z,8.23
2018-07-20T17:14:33.281Z,8.37
2018-07-20T17:17:02.391Z,9.37
2018-07-20T17:19:31.503Z,10.77
2018-07-20T17:22:00.649Z,11.07
2018-07-20T17:24:29.805Z,11.60
2018-07-20T17:26:58.913Z,12.97
2018-07-20T17:29:28.154Z,13.47
2018-07-20T17:31:57.261Z,13.17
2018-07-20T17:34:26.408Z,12.87
2018-07-20T17:36:55.496Z,12.33
2018-07-20T17:39:24.675Z,12.97
2018-07-20T17:41:54.357Z,11.23
2018-07-20T17:44:23.441Z,9.90
2018-07-20T17:46:52.558Z,9.30
2018-07-20T17:49:21.669Z,9.57
2018-07-20T17:51:50.831Z,10.23
2018-07-20T17:54:19.974Z,9.17
2018-07-20T17:56:49.116Z,8.87
2018-07-20T17:59:18.226Z,8.40
2018-07-20T18:01:47.317Z,8.80
2018-07-20T18:04:16.441Z,10.00
2018-07-20T18:06:45.536Z,9.27
2018-07-20T18:09:14.685Z,8.40
2018-07-20T18:11:43.789Z,8.60
2018-07-20T18:14:12.897Z,9.57
2018-07-20T18:16:42.352Z,9.13
2018-07-20T18:19:11.455Z,9.07
2018-07-20T18:21:40.562Z,9.00
2018-07-20T18:24:09.682Z,9.67
2018-07-20T18:26:38.777Z,8.67
2018-07-20T18:29:07.929Z,7.93
2018-07-20T18:31:37.102Z,7.93
2018-07-20T18:34:06.280Z,7.07
2018-07-20T18:36:35.406Z,7.87
2018-07-20T18:39:07.945Z,6.73
2018-07-20T18:41:37.497Z,6.87
2018-07-20T18:44:06.738Z,7.10
2018-07-20T18:46:36.122Z,7.30
2018-07-20T18:49:05.277Z,8.67
2018-07-20T18:51:34.417Z,7.90
2018-07-20T18:54:03.509Z,7.23
2018-07-20T18:56:32.598Z,7.27
2018-07-20T18:59:01.697Z,7.60
2018-07-20T19:01:30.836Z,7.50
2018-07-20T19:03:59.973Z,8.03
2018-07-20T19:06:29.541Z,8.17
2018-07-20T19:08:58.665Z,6.90
2018-07-20T19:11:27.813Z,7.23
2018-07-20T19:13:56.861Z,7.90
2018-07-20T19:16:25.957Z,7.40
2018-07-20T19:18:55.089Z,7.00
2018-07-20T19:21:26.166Z,6.90
2018-07-20T19:23:55.596Z,7.17
2018-07-20T19:26:24.637Z,6.47
2018-07-20T19:28:53.748Z,6.60
2018-07-20T19:31:22.941Z,7.40
2018-07-20T19:33:52.094Z,7.60
2018-07-20T19:36:21.185Z,6.90
2018-07-20T19:38:50.320Z,7.13
2018-07-20T19:41:19.441Z,7.57
2018-07-20T19:43:48.533Z,7.07
2018-07-20T19:46:17.650Z,6.70
2018-07-20T19:48:46.847Z,6.90
2018-07-20T19:51:15.956Z,7.60
2018-07-20T19:53:45.038Z,8.10
2018-07-20T19:56:14.169Z,8.07
2018-07-20T19:58:43.299Z,9.10
2018-07-20T20:01:12.409Z,8.30
2018-07-20T20:03:41.566Z,8.33
2018-07-20T20:06:10.713Z,7.93
2018-07-20T20:08:39.841Z,7.90
2018-07-20T20:11:09.186Z,8.47
2018-07-20T20:13:38.294Z,8.63
2018-07-20T20:16:07.411Z,8.63
2018-07-20T20:18:36.677Z,8.40
2018-07-20T20:21:05.937Z,8.60
2018-07-20T20:23:35.021Z,9.37
2018-07-20T20:26:04.140Z,8.33
2018-07-20T20:28:33.562Z,9.10
2018-07-20T20:34:00.597Z,9.87
2018-07-20T20:36:29.743Z,9.97
2018-07-20T20:38:59.123Z,8.83
2018-07-20T20:41:28.232Z,8.93
2018-07-20T20:43:57.472Z,9.23
2018-07-20T20:46:26.541Z,9.00
2018-07-20T20:48:55.781Z,8.30
2018-07-20T20:51:24.998Z,9.23
2018-07-20T20:53:54.126Z,9.17
2018-07-20T20:56:23.277Z,10.17
2018-07-20T20:58:52.420Z,10.27
2018-07-20T21:01:21.501Z,10.03
2018-07-20T21:03:50.621Z,9.60
2018-07-20T21:06:19.737Z,8.63
2018-07-20T21:08:48.863Z,9.23
2018-07-20T21:11:19.753Z,9.30
2018-07-20T21:13:48.908Z,9.70
2018-07-20T21:16:18.319Z,9.37
2018-07-20T21:18:47.585Z,9.17
2018-07-20T21:21:16.794Z,8.53
2018-07-20T21:23:45.966Z,10.00
2018-07-20T21:26:15.113Z,9.47
2018-07-20T21:28:44.240Z,9.00
2018-07-20T21:31:13.333Z,8.53
2018-07-20T21:33:43.281Z,9.13
2018-07-20T21:36:12.429Z,9.97
2018-07-20T21:38:41.596Z,9.43
2018-07-20T21:41:10.797Z,8.73
2018-07-20T21:43:39.920Z,10.40
2018-07-20T21:46:09.075Z,9.07
2018-07-20T21:48:38.212Z,8.03
2018-07-20T21:51:07.669Z,9.17
2018-07-20T21:53:36.801Z,9.10
2018-07-20T21:56:05.917Z,8.03
2018-07-20T21:58:35.034Z,8.80
2018-07-20T22:01:04.250Z,8.63
2018-07-20T22:03:33.329Z,8.80
2018-07-20T22:06:02.429Z,7.37
2018-07-20T22:08:31.518Z,8.30
2018-07-20T22:11:00.713Z,8.10
2018-07-20T22:13:29.834Z,8.33
2018-07-20T22:15:58.934Z,8.60
2018-07-20T22:18:28.022Z,8.13
2018-07-20T22:20:57.134Z,8.57
2018-07-20T22:23:26.277Z,8.40
2018-07-20T22:25:55.403Z,8.47
2018-07-20T22:28:24.533Z,8.50
2018-07-20T22:30:53.637Z,8.10
2018-07-20T22:33:22.748Z,9.10
2018-07-20T22:35:51.867Z,8.53
2018-07-20T22:38:20.988Z,8.27
2018-07-20T22:40:50.105Z,8.90
2018-07-20T22:43:19.225Z,8.50
2018-07-20T22:45:48.334Z,9.23
2018-07-20T22:48:17.447Z,9.23
2018-07-20T22:50:46.569Z,8.50
2018-07-20T22:53:15.645Z,8.30
2018-07-20T22:55:44.738Z,8.23
2018-07-20T22:58:13.857Z,9.17
2018-07-20T23:00:42.961Z,9.13
2018-07-20T23:03:12.105Z,8.70
2018-07-20T23:05:41.190Z,8.33
2018-07-20T23:08:10.286Z,8.63
2018-07-20T23:10:39.389Z,7.60
2018-07-20T23:13:08.491Z,7.93
2018-07-20T23:15:37.637Z,8.53
2018-07-20T23:18:07.010Z,8.20
2018-07-20T23:20:36.148Z,8.40
2018-07-20T23:23:05.269Z,7.60
2018-07-20T23:25:34.369Z,8.33
2018-07-20T23:28:03.534Z,7.83
2018-07-20T23:30:32.672Z,8.70
2018-07-20T23:33:01.741Z,7.63
2018-07-20T23:35:30.862Z,7.87
2018-07-20T23:37:59.969Z,8.07
2018-07-20T23:40:29.104Z,7.70
2018-07-20T23:42:58.213Z,8.33
2018-07-20T23:45:27.333Z,7.13
2018-07-20T23:47:56.458Z,7.80
2018-07-20T23:50:25.577Z,7.43
2018-07-20T23:52:54.702Z,7.40
2018-07-20T23:55:23.840Z,7.30
2018-07-20T23:57:53.006Z,7.80
